createdAt,value
2023-01-10T00:00:32.345Z,959.96
2023-01-10T00:01:32.262Z,960.01
2023-01-10T00:02:32.268Z,960.01
2023-01-10T00:03:32.255Z,960.06
2023-01-10T00:04:32.241Z,960.10
2023-01-10T00:05:32.243Z,960.12
2023-01-10T00:06:32.222Z,960.16
2023-01-10T00:07:32.198Z,960.18
2023-01-10T00:08:32.185Z,960.18
2023-01-10T00:09:32.155Z,960.20
2023-01-10T00:10:32.159Z,960.19
2023-01-10T00:11:32.177Z,960.11
2023-01-10T00:12:32.115Z,960.21
2023-01-10T00:13:32.131Z,960.11
2023-01-10T00:14:32.092Z,960.20
2023-01-10T00:15:32.102Z,960.10
2023-01-10T00:16:32.100Z,960.18
2023-01-10T00:17:32.082Z,960.17
2023-01-10T00:18:32.051Z,960.17
2023-01-10T00:19:32.074Z,960.17
2023-01-10T00:20:32.064Z,960.23
2023-01-10T00:21:32.024Z,960.17
2023-01-10T00:22:32.043Z,960.23
2023-01-10T00:23:32.023Z,960.27
2023-01-10T00:24:31.989Z,960.25
2023-01-10T00:25:31.984Z,960.20
2023-01-10T00:26:32.005Z,960.23
2023-01-10T00:27:31.976Z,960.29
2023-01-10T00:28:31.936Z,960.31
2023-01-10T00:29:31.993Z,960.35
2023-01-10T00:30:31.945Z,960.33
2023-01-10T00:31:32.051Z,960.43
2023-01-10T00:32:31.904Z,960.40
2023-01-10T00:33:32.077Z,960.44
2023-01-10T00:34:31.919Z,960.38
2023-01-10T00:35:31.916Z,960.47
2023-01-10T00:36:31.887Z,960.40
2023-01-10T00:37:31.836Z,960.44
2023-01-10T00:38:31.860Z,960.46
2023-01-10T00:39:31.823Z,960.52
2023-01-10T00:40:31.819Z,960.55
2023-01-10T00:41:31.813Z,960.52
2023-01-10T00:42:31.790Z,960.53
2023-01-10T00:43:31.778Z,960.54
2023-01-10T00:44:31.776Z,960.58
2023-01-10T00:45:31.751Z,960.62
2023-01-10T00:46:31.844Z,960.70
2023-01-10T00:47:31.764Z,960.66
2023-01-10T00:48:31.738Z,960.67
2023-01-10T00:49:31.713Z,960.73
2023-01-10T00:50:31.709Z,960.67
2023-01-10T00:51:31.682Z,960.75
2023-01-10T00:52:31.719Z,960.74
2023-01-10T00:53:31.689Z,960.72
2023-01-10T00:54:31.668Z,960.78
2023-01-10T00:55:31.653Z,960.84
2023-01-10T00:56:31.624Z,960.81
2023-01-10T00:57:31.653Z,960.84
2023-01-10T00:58:31.624Z,960.81
2023-01-10T00:59:31.620Z,960.86
2023-01-10T01:00:31.602Z,960.87
2023-01-10T01:01:31.721Z,960.88
2023-01-10T01:02:31.602Z,960.87
2023-01-10T01:03:31.557Z,960.87
2023-01-10T01:04:31.559Z,960.91
2023-01-10T01:05:31.565Z,960.93
2023-01-10T01:06:31.522Z,960.92
2023-01-10T01:07:31.835Z,960.96
2023-01-10T01:08:31.492Z,960.97
2023-01-10T01:09:31.496Z,960.90
2023-01-10T01:10:31.523Z,960.97
2023-01-10T01:11:31.465Z,961.04
2023-01-10T01:12:31.481Z,961.01
2023-01-10T01:13:31.469Z,961.02
2023-01-10T01:14:31.439Z,961.03
2023-01-10T01:15:31.472Z,961.07
2023-01-10T01:16:31.428Z,961.10
2023-01-10T01:17:31.406Z,961.11
2023-01-10T01:18:31.387Z,961.15
2023-01-10T01:19:31.407Z,961.15
2023-01-10T01:20:31.364Z,961.17
2023-01-10T01:21:31.366Z,961.20
2023-01-10T01:22:31.364Z,961.22
2023-01-10T01:23:31.384Z,961.27
2023-01-10T01:24:31.339Z,961.28
2023-01-10T01:25:31.303Z,961.28
2023-01-10T01:26:31.314Z,961.33
2023-01-10T01:27:31.285Z,961.34
2023-01-10T01:28:31.313Z,961.35
2023-01-10T01:29:42.389Z,961.37
2023-01-10T01:30:32.243Z,961.41
2023-01-10T01:31:31.272Z,961.41
2023-01-10T01:32:31.235Z,961.41
2023-01-10T01:33:31.247Z,961.41
2023-01-10T01:34:31.227Z,961.42
2023-01-10T01:35:31.239Z,961.52
2023-01-10T01:36:31.185Z,961.52
2023-01-10T01:37:31.168Z,961.51
2023-01-10T01:38:31.161Z,961.54
2023-01-10T01:39:31.196Z,961.54
2023-01-10T01:40:31.164Z,961.54
2023-01-10T01:41:31.149Z,961.54
2023-01-10T01:42:31.131Z,961.54
2023-01-10T01:43:31.116Z,961.54
2023-01-10T01:44:31.089Z,961.63
2023-01-10T01:45:31.089Z,961.57
2023-01-10T01:46:31.115Z,961.60
2023-01-10T01:47:31.056Z,961.64
2023-01-10T01:48:31.099Z,961.68
2023-01-10T01:49:31.059Z,961.65
2023-01-10T01:50:31.024Z,961.66
2023-01-10T01:51:31.012Z,961.69
2023-01-10T01:52:31.083Z,961.70
2023-01-10T01:53:31.023Z,961.66
2023-01-10T01:54:30.998Z,961.69
2023-01-10T01:55:30.983Z,961.71
2023-01-10T01:56:31.040Z,961.72
2023-01-10T01:57:30.949Z,961.69
2023-01-10T01:58:30.968Z,961.74
2023-01-10T01:59:30.921Z,961.80
2023-01-10T02:00:30.918Z,961.79
2023-01-10T02:01:31.029Z,961.80
2023-01-10T02:02:30.940Z,961.86
2023-01-10T02:03:30.912Z,961.89
2023-01-10T02:04:30.883Z,961.89
2023-01-10T02:05:30.855Z,961.98
2023-01-10T02:06:30.853Z,961.91
2023-01-10T02:07:30.863Z,961.97
2023-01-10T02:08:30.842Z,961.95
2023-01-10T02:09:30.826Z,961.99
2023-01-10T02:10:30.857Z,961.95
2023-01-10T02:11:30.788Z,961.89
2023-01-10T02:12:30.790Z,961.93
2023-01-10T02:13:30.770Z,961.92
2023-01-10T02:14:30.842Z,961.90
2023-01-10T02:15:30.767Z,961.93
2023-01-10T02:16:30.762Z,961.94
2023-01-10T02:17:30.725Z,961.95
2023-01-10T02:18:30.734Z,961.95
2023-01-10T02:19:30.712Z,961.94
2023-01-10T02:20:30.698Z,961.97
2023-01-10T02:21:30.708Z,962.01
2023-01-10T02:22:30.706Z,962.02
2023-01-10T02:23:30.670Z,962.04
2023-01-10T02:24:30.704Z,962.06
2023-01-10T02:25:30.661Z,962.04
2023-01-10T02:26:30.645Z,962.07
2023-01-10T02:27:30.680Z,962.10
2023-01-10T02:28:30.670Z,962.10
2023-01-10T02:29:30.607Z,962.16
2023-01-10T02:30:30.685Z,962.09
2023-01-10T02:31:30.938Z,962.10
2023-01-10T02:32:42.096Z,962.09
2023-01-10T02:33:31.555Z,962.11
2023-01-10T02:34:31.364Z,962.11
2023-01-10T02:35:30.535Z,962.09
2023-01-10T02:36:30.723Z,962.07
2023-01-10T02:37:30.505Z,962.06
2023-01-10T02:38:30.519Z,962.06
2023-01-10T02:39:30.676Z,962.09
2023-01-10T02:40:30.501Z,962.08
2023-01-10T02:41:30.457Z,962.12
2023-01-10T02:42:30.465Z,962.16
2023-01-10T02:43:30.461Z,962.11
2023-01-10T02:44:30.444Z,962.16
2023-01-10T02:45:30.449Z,962.25
2023-01-10T02:46:30.505Z,962.18
2023-01-10T02:47:30.414Z,962.24
2023-01-10T02:48:30.419Z,962.29
2023-01-10T02:49:30.378Z,962.19
2023-01-10T02:50:30.364Z,962.29
2023-01-10T02:51:30.363Z,962.27
2023-01-10T02:52:30.360Z,962.32
2023-01-10T02:53:30.350Z,962.39
2023-01-10T02:54:30.326Z,962.42
2023-01-10T02:55:30.328Z,962.43
2023-01-10T02:56:30.323Z,962.35
2023-01-10T02:57:30.297Z,962.39
2023-01-10T02:58:30.268Z,962.40
2023-01-10T02:59:30.366Z,962.39
2023-01-10T03:00:30.264Z,962.40
2023-01-10T03:01:30.347Z,962.43
2023-01-10T03:02:30.238Z,962.46
2023-01-10T03:03:30.229Z,962.52
2023-01-10T03:04:30.264Z,962.51
2023-01-10T03:05:30.212Z,962.54
2023-01-10T03:06:30.212Z,962.58
2023-01-10T03:07:30.208Z,962.60
2023-01-10T03:08:30.157Z,962.51
2023-01-10T03:09:30.144Z,962.53
2023-01-10T03:10:30.175Z,962.58
2023-01-10T03:11:30.132Z,962.60
2023-01-10T03:12:30.123Z,962.62
2023-01-10T03:13:30.143Z,962.67
2023-01-10T03:14:30.100Z,962.67
2023-01-10T03:15:30.083Z,962.63
2023-01-10T03:16:30.120Z,962.68
2023-01-10T03:17:30.076Z,962.71
2023-01-10T03:18:30.082Z,962.70
2023-01-10T03:19:30.063Z,962.72
2023-01-10T03:20:30.040Z,962.73
2023-01-10T03:21:30.011Z,962.76
2023-01-10T03:22:30.050Z,962.76
2023-01-10T03:23:30.001Z,962.75
2023-01-10T03:24:29.993Z,962.72
2023-01-10T03:25:30.001Z,962.79
2023-01-10T03:26:29.971Z,962.84
2023-01-10T03:27:29.981Z,962.89
2023-01-10T03:28:29.959Z,962.99
2023-01-10T03:29:29.932Z,962.98
2023-01-10T03:30:29.948Z,963.00
2023-01-10T03:31:29.965Z,963.02
2023-01-10T03:32:29.887Z,963.06
2023-01-10T03:33:29.898Z,963.08
2023-01-10T03:34:29.884Z,963.12
2023-01-10T03:35:29.871Z,963.08
2023-01-10T03:36:29.879Z,963.10
2023-01-10T03:37:29.850Z,963.05
2023-01-10T03:38:29.847Z,963.09
2023-01-10T03:39:29.831Z,963.09
2023-01-10T03:40:29.806Z,963.09
2023-01-10T03:41:29.812Z,963.18
2023-01-10T03:42:29.827Z,963.18
2023-01-10T03:43:29.767Z,963.17
2023-01-10T03:44:29.796Z,963.20
2023-01-10T03:45:29.761Z,963.21
2023-01-10T03:46:29.838Z,963.27
2023-01-10T03:47:29.744Z,963.30
2023-01-10T03:48:29.762Z,963.25
2023-01-10T03:49:29.700Z,963.36
2023-01-10T03:50:29.733Z,963.37
2023-01-10T03:51:29.686Z,963.33
2023-01-10T03:52:29.680Z,963.38
2023-01-10T03:53:29.654Z,963.40
2023-01-10T03:54:29.707Z,963.50
2023-01-10T03:55:29.646Z,963.50
2023-01-10T03:56:29.632Z,963.59
2023-01-10T03:57:29.626Z,963.55
2023-01-10T03:58:29.680Z,963.60
2023-01-10T03:59:29.591Z,963.61
2023-01-10T04:00:29.667Z,963.60
2023-01-10T04:01:29.748Z,963.62
2023-01-10T04:02:29.573Z,963.64
2023-01-10T04:03:29.587Z,963.67
2023-01-10T04:04:29.581Z,963.65
2023-01-10T04:05:29.550Z,963.68
2023-01-10T04:06:29.538Z,963.65
2023-01-10T04:07:29.502Z,963.70
2023-01-10T04:08:29.519Z,963.67
2023-01-10T04:09:29.490Z,963.75
2023-01-10T04:10:29.483Z,963.71
2023-01-10T04:11:29.468Z,963.71
2023-01-10T04:12:29.511Z,963.68
2023-01-10T04:13:29.437Z,963.66
2023-01-10T04:14:29.423Z,963.69
2023-01-10T04:15:29.424Z,963.67
2023-01-10T04:16:29.500Z,963.71
2023-01-10T04:17:29.414Z,963.74
2023-01-10T04:18:29.408Z,963.77
2023-01-10T04:19:29.384Z,963.78
2023-01-10T04:20:29.361Z,963.85
2023-01-10T04:21:29.359Z,963.79
2023-01-10T04:22:29.375Z,963.80
2023-01-10T04:23:29.319Z,963.80
2023-01-10T04:24:29.382Z,963.83
2023-01-10T04:25:29.322Z,963.88
2023-01-10T04:26:29.304Z,963.93
2023-01-10T04:27:29.292Z,964.01
2023-01-10T04:28:29.272Z,964.04
2023-01-10T04:29:29.256Z,964.08
2023-01-10T04:30:29.263Z,964.05
2023-01-10T04:31:29.371Z,964.05
2023-01-10T04:32:29.234Z,964.06
2023-01-10T04:33:29.241Z,964.12
2023-01-10T04:34:29.211Z,964.17
2023-01-10T04:35:29.204Z,964.07
2023-01-10T04:36:29.201Z,964.15
2023-01-10T04:37:29.167Z,964.10
2023-01-10T04:38:29.193Z,964.17
2023-01-10T04:39:29.187Z,964.18
2023-01-10T04:40:29.189Z,964.15
2023-01-10T04:41:29.118Z,964.20
2023-01-10T04:42:29.143Z,964.21
2023-01-10T04:43:29.108Z,964.25
2023-01-10T04:44:29.111Z,964.26
2023-01-10T04:45:29.141Z,964.23
2023-01-10T04:46:29.079Z,964.26
2023-01-10T04:47:29.053Z,964.31
2023-01-10T04:48:29.064Z,964.36
2023-01-10T04:49:29.044Z,964.34
2023-01-10T04:50:29.071Z,964.40
2023-01-10T04:51:29.002Z,964.37
2023-01-10T04:52:29.006Z,964.43
2023-01-10T04:53:29.009Z,964.45
2023-01-10T04:54:29.000Z,964.47
2023-01-10T04:55:28.973Z,964.44
2023-01-10T04:56:28.998Z,964.49
2023-01-10T04:57:28.947Z,964.45
2023-01-10T04:58:28.930Z,964.54
2023-01-10T04:59:28.930Z,964.55
2023-01-10T05:00:28.919Z,964.51
2023-01-10T05:01:28.954Z,964.60
2023-01-10T05:02:28.968Z,964.58
2023-01-10T05:03:28.874Z,964.64
2023-01-10T05:04:28.893Z,964.66
2023-01-10T05:05:28.891Z,964.65
2023-01-10T05:06:28.868Z,964.66
2023-01-10T05:07:28.840Z,964.70
2023-01-10T05:08:28.818Z,964.71
2023-01-10T05:09:28.825Z,964.66
2023-01-10T05:10:28.817Z,964.73
2023-01-10T05:11:28.801Z,964.75
2023-01-10T05:12:28.812Z,964.73
2023-01-10T05:13:28.785Z,964.80
2023-01-10T05:14:28.820Z,964.80
2023-01-10T05:15:28.761Z,964.85
2023-01-10T05:16:28.838Z,964.84
2023-01-10T05:17:28.724Z,964.86
2023-01-10T05:18:28.728Z,964.89
2023-01-10T05:19:28.737Z,964.86
2023-01-10T05:20:28.685Z,964.90
2023-01-10T05:21:28.698Z,964.93
2023-01-10T05:22:28.677Z,964.89
2023-01-10T05:23:28.734Z,964.99
2023-01-10T05:24:28.657Z,965.10
2023-01-10T05:25:28.681Z,965.07
2023-01-10T05:26:28.651Z,965.10
2023-01-10T05:27:28.605Z,965.14
2023-01-10T05:28:28.627Z,965.18
2023-01-10T05:29:28.601Z,965.15
2023-01-10T05:30:28.593Z,965.19
2023-01-10T05:31:28.641Z,965.16
2023-01-10T05:32:28.571Z,965.21
2023-01-10T05:33:28.578Z,965.20
2023-01-10T05:34:28.530Z,965.21
2023-01-10T05:35:28.526Z,965.15
2023-01-10T05:36:28.535Z,965.16
2023-01-10T05:37:28.566Z,965.19
2023-01-10T05:38:28.488Z,965.18
2023-01-10T05:39:28.484Z,965.21
2023-01-10T05:40:28.472Z,965.22
2023-01-10T05:41:28.465Z,965.23
2023-01-10T05:42:28.476Z,965.30
2023-01-10T05:43:28.485Z,965.30
2023-01-10T05:44:28.418Z,965.35
2023-01-10T05:45:28.404Z,965.35
2023-01-10T05:46:28.426Z,965.38
2023-01-10T05:47:28.415Z,965.44
2023-01-10T05:48:28.373Z,965.46
2023-01-10T05:49:28.422Z,965.49
2023-01-10T05:50:28.359Z,965.48
2023-01-10T05:51:28.348Z,965.52
2023-01-10T05:52:28.348Z,965.57
2023-01-10T05:53:28.342Z,965.51
2023-01-10T05:54:28.315Z,965.59
2023-01-10T05:55:28.362Z,965.56
2023-01-10T05:56:28.302Z,965.61
2023-01-10T05:57:28.285Z,965.60
2023-01-10T05:58:28.334Z,965.62
2023-01-10T05:59:28.755Z,965.61
2023-01-10T06:00:28.238Z,965.65
2023-01-10T06:01:28.310Z,965.70
2023-01-10T06:02:28.376Z,965.75
2023-01-10T06:03:28.213Z,965.76
2023-01-10T06:04:28.211Z,965.87
2023-01-10T06:05:28.218Z,965.90
2023-01-10T06:06:28.172Z,965.96
2023-01-10T06:07:28.190Z,965.99
2023-01-10T06:08:28.150Z,966.03
2023-01-10T06:09:28.161Z,966.02
2023-01-10T06:10:28.168Z,966.05
2023-01-10T06:11:28.132Z,966.05
2023-01-10T06:12:28.106Z,966.03
2023-01-10T06:13:28.112Z,966.07
2023-01-10T06:14:28.107Z,966.09
2023-01-10T06:15:28.087Z,966.10
2023-01-10T06:16:28.089Z,966.16
2023-01-10T06:17:28.056Z,966.18
2023-01-10T06:18:28.077Z,966.18
2023-01-10T06:19:28.061Z,966.24
2023-01-10T06:20:28.034Z,966.28
2023-01-10T06:21:28.027Z,966.20
2023-01-10T06:22:28.033Z,966.30
2023-01-10T06:23:27.984Z,966.25
2023-01-10T06:24:27.975Z,966.35
2023-01-10T06:25:27.992Z,966.35
2023-01-10T06:26:27.964Z,966.43
2023-01-10T06:27:27.973Z,966.45
2023-01-10T06:28:27.927Z,966.41
2023-01-10T06:29:27.936Z,966.40
2023-01-10T06:30:27.970Z,966.43
2023-01-10T06:31:27.941Z,966.45
2023-01-10T06:32:27.925Z,966.49
2023-01-10T06:33:27.915Z,966.46
2023-01-10T06:34:27.882Z,966.54
2023-01-10T06:35:27.862Z,966.56
2023-01-10T06:36:27.852Z,966.60
2023-01-10T06:37:27.881Z,966.60
2023-01-10T06:38:27.844Z,966.64
2023-01-10T06:39:27.807Z,966.65
2023-01-10T06:40:27.793Z,966.72
2023-01-10T06:41:27.786Z,966.69
2023-01-10T06:42:27.801Z,966.69
2023-01-10T06:43:27.834Z,966.71
2023-01-10T06:44:27.793Z,966.81
2023-01-10T06:45:27.774Z,966.79
2023-01-10T06:46:27.763Z,966.87
2023-01-10T06:47:27.724Z,966.87
2023-01-10T06:48:27.716Z,966.89
2023-01-10T06:49:27.723Z,966.97
2023-01-10T06:50:27.719Z,966.97
2023-01-10T06:51:27.673Z,967.09
2023-01-10T06:52:27.666Z,967.09
2023-01-10T06:53:27.662Z,967.07
2023-01-10T06:54:27.671Z,967.12
2023-01-10T06:55:27.682Z,967.12
2023-01-10T06:56:27.652Z,967.17
2023-01-10T06:57:27.675Z,967.11
2023-01-10T06:58:27.597Z,967.08
2023-01-10T06:59:27.599Z,967.10
2023-01-10T07:00:27.581Z,967.16
2023-01-10T07:01:27.722Z,967.15
2023-01-10T07:02:27.594Z,967.21
2023-01-10T07:03:27.567Z,967.25
2023-01-10T07:04:27.531Z,967.32
2023-01-10T07:05:27.552Z,967.33
2023-01-10T07:06:27.634Z,967.30
2023-01-10T07:07:27.494Z,967.33
2023-01-10T07:08:27.529Z,967.41
2023-01-10T07:09:27.487Z,967.44
2023-01-10T07:10:27.479Z,967.41
2023-01-10T07:11:27.460Z,967.46
2023-01-10T07:12:27.462Z,967.54
2023-01-10T07:13:27.427Z,967.52
2023-01-10T07:14:27.424Z,967.54
2023-01-10T07:15:27.423Z,967.65
2023-01-10T07:16:27.489Z,967.69
2023-01-10T07:17:27.426Z,967.74
2023-01-10T07:18:27.414Z,967.77
2023-01-10T07:19:27.370Z,967.82
2023-01-10T07:20:27.357Z,967.80
2023-01-10T07:21:27.351Z,967.82
2023-01-10T07:22:27.357Z,967.86
2023-01-10T07:23:27.336Z,967.89
2023-01-10T07:24:27.340Z,967.88
2023-01-10T07:25:27.329Z,967.89
2023-01-10T07:26:27.292Z,967.93
2023-01-10T07:27:27.286Z,967.92
2023-01-10T07:28:27.262Z,967.89
2023-01-10T07:29:27.276Z,967.92
2023-01-10T07:30:27.281Z,967.94
2023-01-10T07:31:27.264Z,967.95
2023-01-10T07:32:27.234Z,967.98
2023-01-10T07:33:27.216Z,968.01
2023-01-10T07:34:27.245Z,967.99
2023-01-10T07:35:27.218Z,967.97
2023-01-10T07:36:27.171Z,968.05
2023-01-10T07:37:27.175Z,968.02
2023-01-10T07:38:27.169Z,968.08
2023-01-10T07:39:27.143Z,968.16
2023-01-10T07:40:27.174Z,968.28
2023-01-10T07:41:27.152Z,968.14
2023-01-10T07:42:27.119Z,968.27
2023-01-10T07:43:27.101Z,968.27
2023-01-10T07:44:27.098Z,968.28
2023-01-10T07:45:27.114Z,968.33
2023-01-10T07:46:27.123Z,968.35
2023-01-10T07:47:27.082Z,968.31
2023-01-10T07:48:27.074Z,968.33
2023-01-10T07:49:27.050Z,968.31
2023-01-10T07:50:27.125Z,968.43
2023-01-10T07:51:27.028Z,968.40
2023-01-10T07:52:27.018Z,968.45
2023-01-10T07:53:27.026Z,968.38
2023-01-10T07:54:26.989Z,968.51
2023-01-10T07:55:26.963Z,968.50
2023-01-10T07:56:26.985Z,968.51
2023-01-10T07:57:26.973Z,968.50
2023-01-10T07:58:26.939Z,968.54
2023-01-10T07:59:26.925Z,968.55
2023-01-10T08:00:26.945Z,968.52
2023-01-10T08:01:26.996Z,968.65
2023-01-10T08:02:27.048Z,968.55
2023-01-10T08:03:27.042Z,968.70
2023-01-10T08:04:26.911Z,968.73
2023-01-10T08:05:26.850Z,968.73
2023-01-10T08:06:26.859Z,968.76
2023-01-10T08:07:26.832Z,968.74
2023-01-10T08:08:26.822Z,968.74
2023-01-10T08:09:26.841Z,968.78
2023-01-10T08:10:26.860Z,968.67
2023-01-10T08:11:26.784Z,968.79
2023-01-10T08:12:26.771Z,968.78
2023-01-10T08:13:26.775Z,968.91
2023-01-10T08:14:26.831Z,968.93
2023-01-10T08:15:26.891Z,968.94
2023-01-10T08:16:26.814Z,968.84
2023-01-10T08:17:26.737Z,968.90
2023-01-10T08:18:26.706Z,968.96
2023-01-10T08:19:26.724Z,969.02
2023-01-10T08:20:26.693Z,969.00
2023-01-10T08:21:26.725Z,969.04
2023-01-10T08:22:26.684Z,968.99
2023-01-10T08:23:26.653Z,969.03
2023-01-10T08:24:26.650Z,969.08
2023-01-10T08:25:26.651Z,969.08
2023-01-10T08:26:26.641Z,969.15
2023-01-10T08:27:26.648Z,969.14
2023-01-10T08:28:26.653Z,969.15
2023-01-10T08:29:26.592Z,969.12
2023-01-10T08:30:26.593Z,969.12
2023-01-10T08:31:26.638Z,969.16
2023-01-10T08:32:26.569Z,969.14
2023-01-10T08:33:26.545Z,969.16
2023-01-10T08:34:26.556Z,969.19
2023-01-10T08:35:26.523Z,969.21
2023-01-10T08:36:26.528Z,969.28
2023-01-10T08:37:26.517Z,969.25
2023-01-10T08:38:26.528Z,969.28
2023-01-10T08:39:26.475Z,969.22
2023-01-10T08:40:26.553Z,969.28
2023-01-10T08:41:26.477Z,969.33
2023-01-10T08:42:26.470Z,969.22
2023-01-10T08:43:26.448Z,969.32
2023-01-10T08:44:26.436Z,969.38
2023-01-10T08:45:26.422Z,969.33
2023-01-10T08:46:26.464Z,969.34
2023-01-10T08:47:26.433Z,969.41
2023-01-10T08:48:26.384Z,969.38
2023-01-10T08:49:26.388Z,969.40
2023-01-10T08:50:26.382Z,969.42
2023-01-10T08:51:26.351Z,969.43
2023-01-10T08:52:26.347Z,969.50
2023-01-10T08:53:26.357Z,969.54
2023-01-10T08:54:26.337Z,969.51
2023-01-10T08:55:26.326Z,969.50
2023-01-10T08:56:26.297Z,969.51
2023-01-10T08:57:26.297Z,969.56
2023-01-10T08:58:26.875Z,969.59
2023-01-10T08:59:26.314Z,969.63
2023-01-10T09:00:26.269Z,969.66
2023-01-10T09:01:26.410Z,969.60
2023-01-10T09:02:26.217Z,969.61
2023-01-10T09:03:34.965Z,969.62
2023-01-10T09:04:26.225Z,969.65
2023-01-10T09:05:27.795Z,969.67
2023-01-10T09:06:26.217Z,969.69
2023-01-10T09:07:26.200Z,969.72
2023-01-10T09:08:26.153Z,969.69
2023-01-10T09:09:26.178Z,969.72
2023-01-10T09:10:26.192Z,969.73
2023-01-10T09:11:26.123Z,969.74
2023-01-10T09:12:26.153Z,969.78
2023-01-10T09:13:26.191Z,969.82
2023-01-10T09:14:26.109Z,969.80
2023-01-10T09:15:26.081Z,969.77
2023-01-10T09:16:26.233Z,969.75
2023-01-10T09:17:26.068Z,969.82
2023-01-10T09:18:26.056Z,969.78
2023-01-10T09:19:26.065Z,969.84
2023-01-10T09:20:26.061Z,969.79
2023-01-10T09:21:26.124Z,969.80
2023-01-10T09:22:25.998Z,969.84
2023-01-10T09:23:26.001Z,969.79
2023-01-10T09:24:25.972Z,969.80
2023-01-10T09:25:26.024Z,969.85
2023-01-10T09:26:25.980Z,969.85
2023-01-10T09:27:25.965Z,969.90
2023-01-10T09:28:25.933Z,969.90
2023-01-10T09:29:25.929Z,969.90
2023-01-10T09:30:25.939Z,969.90
2023-01-10T09:31:25.993Z,969.95
2023-01-10T09:32:25.885Z,970.00
2023-01-10T09:33:28.065Z,970.00
2023-01-10T09:34:25.875Z,970.00
2023-01-10T09:35:25.923Z,969.99
2023-01-10T09:36:25.879Z,970.06
2023-01-10T09:37:25.906Z,970.10
2023-01-10T09:38:25.864Z,970.12
2023-01-10T09:39:25.808Z,970.19
2023-01-10T09:40:25.831Z,970.25
2023-01-10T09:41:25.836Z,970.31
2023-01-10T09:42:25.806Z,970.33
2023-01-10T09:43:25.767Z,970.42
2023-01-10T09:44:25.782Z,970.41
2023-01-10T09:45:25.810Z,970.41
2023-01-10T09:46:25.834Z,970.47
2023-01-10T09:47:25.764Z,970.47
2023-01-10T09:48:25.715Z,970.49
2023-01-10T09:49:25.720Z,970.46
2023-01-10T09:50:25.719Z,970.48
2023-01-10T09:51:25.716Z,970.51
2023-01-10T09:52:25.690Z,970.54
2023-01-10T09:53:25.661Z,970.52
2023-01-10T09:54:25.673Z,970.54
2023-01-10T09:55:25.676Z,970.51
2023-01-10T09:56:25.617Z,970.53
2023-01-10T09:57:25.623Z,970.49
2023-01-10T09:58:25.664Z,970.59
2023-01-10T09:59:25.601Z,970.59
2023-01-10T10:00:25.585Z,970.61
2023-01-10T10:01:25.636Z,970.66
2023-01-10T10:02:25.558Z,970.67
2023-01-10T10:03:25.586Z,970.63
2023-01-10T10:04:25.751Z,970.57
2023-01-10T10:05:25.593Z,970.58
2023-01-10T10:06:25.525Z,970.51
2023-01-10T10:07:25.544Z,970.53
2023-01-10T10:08:25.494Z,970.53
2023-01-10T10:09:25.506Z,970.50
2023-01-10T10:10:25.498Z,970.48
2023-01-10T10:11:25.457Z,970.48
2023-01-10T10:12:25.442Z,970.50
2023-01-10T10:13:28.089Z,970.54
2023-01-10T10:14:25.453Z,970.51
2023-01-10T10:15:25.455Z,970.54
2023-01-10T10:16:25.548Z,970.56
2023-01-10T10:17:25.397Z,970.59
2023-01-10T10:18:25.395Z,970.57
2023-01-10T10:19:25.365Z,970.60
2023-01-10T10:20:25.391Z,970.50
2023-01-10T10:21:25.343Z,970.52
2023-01-10T10:22:25.385Z,970.47
2023-01-10T10:23:25.329Z,970.43
2023-01-10T10:24:25.333Z,970.46
2023-01-10T10:25:25.305Z,970.36
2023-01-10T10:26:25.327Z,970.41
2023-01-10T10:27:25.276Z,970.29
2023-01-10T10:28:25.324Z,970.29
2023-01-10T10:29:25.300Z,970.28
2023-01-10T10:30:25.324Z,970.33
2023-01-10T10:31:25.297Z,970.29
2023-01-10T10:32:25.216Z,970.30
2023-01-10T10:33:25.205Z,970.32
2023-01-10T10:34:25.266Z,970.31
2023-01-10T10:35:25.202Z,970.36
2023-01-10T10:36:25.187Z,970.38
2023-01-10T10:37:25.205Z,970.35
2023-01-10T10:38:25.155Z,970.28
2023-01-10T10:39:25.142Z,970.27
2023-01-10T10:40:25.132Z,970.29
2023-01-10T10:41:25.141Z,970.22
2023-01-10T10:42:25.116Z,970.21
2023-01-10T10:43:25.133Z,970.17
2023-01-10T10:44:25.086Z,970.14
2023-01-10T10:45:25.635Z,970.19
2023-01-10T10:46:25.111Z,970.28
2023-01-10T10:47:25.057Z,970.23
2023-01-10T10:48:25.060Z,970.24
2023-01-10T10:49:25.029Z,970.26
2023-01-10T10:50:25.029Z,970.18
2023-01-10T10:51:25.021Z,970.19
2023-01-10T10:52:25.028Z,970.15
2023-01-10T10:53:24.987Z,970.18
2023-01-10T10:54:24.998Z,970.21
2023-01-10T10:55:24.996Z,970.27
2023-01-10T10:56:24.948Z,970.22
2023-01-10T10:57:24.937Z,970.24
2023-01-10T10:58:24.930Z,970.25
2023-01-10T10:59:24.935Z,970.30
2023-01-10T11:00:24.928Z,970.25
2023-01-10T11:01:26.464Z,970.20
2023-01-10T11:02:24.953Z,970.25
2023-01-10T11:03:24.911Z,970.25
2023-01-10T11:04:24.941Z,970.30
2023-01-10T11:05:24.865Z,970.35
2023-01-10T11:06:24.874Z,970.37
2023-01-10T11:07:24.837Z,970.35
2023-01-10T11:08:24.872Z,970.32
2023-01-10T11:09:24.818Z,970.36
2023-01-10T11:10:24.798Z,970.43
2023-01-10T11:11:24.793Z,970.37
2023-01-10T11:12:24.799Z,970.39
2023-01-10T11:13:24.789Z,970.48
2023-01-10T11:14:24.777Z,970.43
2023-01-10T11:15:24.767Z,970.47
2023-01-10T11:16:24.785Z,970.44
2023-01-10T11:17:24.747Z,970.43
2023-01-10T11:18:24.733Z,970.49
2023-01-10T11:19:24.722Z,970.46
2023-01-10T11:20:24.725Z,970.50
2023-01-10T11:21:25.424Z,970.49
2023-01-10T11:22:24.681Z,970.42
2023-01-10T11:23:24.680Z,970.53
2023-01-10T11:24:24.652Z,970.46
2023-01-10T11:25:24.676Z,970.47
2023-01-10T11:26:24.635Z,970.42
2023-01-10T11:27:24.609Z,970.43
2023-01-10T11:28:24.615Z,970.43
2023-01-10T11:29:24.618Z,970.42
2023-01-10T11:30:24.606Z,970.43
2023-01-10T11:31:24.574Z,970.43
2023-01-10T11:32:24.573Z,970.47
2023-01-10T11:33:24.556Z,970.51
2023-01-10T11:34:24.562Z,970.51
2023-01-10T11:35:24.528Z,970.53
2023-01-10T11:36:24.509Z,970.51
2023-01-10T11:37:24.506Z,970.53
2023-01-10T11:38:24.540Z,970.51
2023-01-10T11:39:24.476Z,970.54
2023-01-10T11:40:24.505Z,970.58
2023-01-10T11:41:24.465Z,970.57
2023-01-10T11:42:24.451Z,970.54
2023-01-10T11:43:24.435Z,970.55
2023-01-10T11:44:24.424Z,970.59
2023-01-10T11:45:24.428Z,970.56
2023-01-10T11:46:24.436Z,970.55
2023-01-10T11:47:26.381Z,970.70
2023-01-10T11:48:47.863Z,970.62
2023-01-10T11:49:25.377Z,970.66
2023-01-10T11:50:24.386Z,970.63
2023-01-10T11:51:24.355Z,970.63
2023-01-10T11:52:24.978Z,970.65
2023-01-10T11:53:24.362Z,970.62
2023-01-10T11:54:24.310Z,970.64
2023-01-10T11:55:24.315Z,970.60
2023-01-10T11:56:24.295Z,970.62
2023-01-10T11:57:24.269Z,970.58
2023-01-10T11:58:24.269Z,970.57
2023-01-10T11:59:24.284Z,970.55
2023-01-10T12:00:24.360Z,970.60
2023-01-10T12:01:24.294Z,970.59
2023-01-10T12:02:24.272Z,970.62
2023-01-10T12:03:24.210Z,970.61
2023-01-10T12:04:24.198Z,970.57
2023-01-10T12:05:24.219Z,970.48
2023-01-10T12:06:24.270Z,970.48
2023-01-10T12:07:24.178Z,970.50
2023-01-10T12:08:24.180Z,970.50
2023-01-10T12:09:24.193Z,970.49
2023-01-10T12:10:24.135Z,970.47
2023-01-10T12:11:24.122Z,970.45
2023-01-10T12:12:24.102Z,970.50
2023-01-10T12:13:24.112Z,970.45
2023-01-10T12:14:24.081Z,970.43
2023-01-10T12:15:24.122Z,970.43
2023-01-10T12:16:24.149Z,970.43
2023-01-10T12:17:24.091Z,970.46
2023-01-10T12:18:24.071Z,970.53
2023-01-10T12:19:24.049Z,970.48
2023-01-10T12:20:24.024Z,970.50
2023-01-10T12:21:24.011Z,970.52
2023-01-10T12:22:24.012Z,970.52
2023-01-10T12:23:24.042Z,970.56
2023-01-10T12:24:23.986Z,970.52
2023-01-10T12:25:23.983Z,970.47
2023-01-10T12:26:23.964Z,970.49
2023-01-10T12:27:23.950Z,970.51
2023-01-10T12:28:23.981Z,970.52